sensor_id;sensor_type;location;lat;lon;timestamp;pressure;altitude;pressure_sealevel;temperature;humidity
74336;BME280;62755;-33.398;-70.572;2023-02-11T00:01:30;92714.31;;;29.16;31.51
74336;BME280;62755;-33.398;-70.572;2023-02-11T00:04:22;92719.44;;;29.32;30.88
74336;BME280;62755;-33.398;-70.572;2023-02-11T00:07:12;92708.06;;;29.36;30.87
74336;BME280;62755;-33.398;-70.572;2023-02-11T00:10:02;92714.03;;;29.47;31.35
74336;BME280;62755;-33.398;-70.572;2023-02-11T00:12:53;92718.16;;;29.33;31.31
74336;BME280;62755;-33.398;-70.572;2023-02-11T00:15:43;92692.34;;;29.10;30.87
74336;BME280;62755;-33.398;-70.572;2023-02-11T00:18:32;92712.53;;;29.05;31.38
74336;BME280;62755;-33.398;-70.572;2023-02-11T00:21:24;92718.25;;;29.20;31.35
74336;BME280;62755;-33.398;-70.572;2023-02-11T00:24:14;92727.78;;;29.19;31.20
74336;BME280;62755;-33.398;-70.572;2023-02-11T00:27:03;92719.06;;;29.28;31.51
74336;BME280;62755;-33.398;-70.572;2023-02-11T00:29:53;92722.94;;;29.12;31.44
74336;BME280;62755;-33.398;-70.572;2023-02-11T00:32:42;92699.78;;;28.61;32.22
74336;BME280;62755;-33.398;-70.572;2023-02-11T00:35:31;92723.94;;;28.68;32.08
74336;BME280;62755;-33.398;-70.572;2023-02-11T00:38:22;92721.78;;;28.40;32.98
74336;BME280;62755;-33.398;-70.572;2023-02-11T00:41:12;92718.50;;;28.42;33.00
74336;BME280;62755;-33.398;-70.572;2023-02-11T00:44:02;92728.66;;;28.47;32.79
74336;BME280;62755;-33.398;-70.572;2023-02-11T00:46:51;92727.41;;;28.48;33.17
74336;BME280;62755;-33.398;-70.572;2023-02-11T00:49:40;92733.34;;;28.39;32.68
74336;BME280;62755;-33.398;-70.572;2023-02-11T00:52:30;92735.94;;;28.24;33.22
74336;BME280;62755;-33.398;-70.572;2023-02-11T00:55:21;92737.19;;;28.36;33.40
74336;BME280;62755;-33.398;-70.572;2023-02-11T00:58:11;92732.72;;;28.33;33.46
74336;BME280;62755;-33.398;-70.572;2023-02-11T01:01:00;92729.53;;;28.42;33.56
74336;BME280;62755;-33.398;-70.572;2023-02-11T01:03:49;92719.72;;;28.54;32.68
74336;BME280;62755;-33.398;-70.572;2023-02-11T01:06:39;92737.81;;;28.42;33.09
74336;BME280;62755;-33.398;-70.572;2023-02-11T01:09:28;92731.66;;;28.36;33.62
74336;BME280;62755;-33.398;-70.572;2023-02-11T01:12:20;92739.06;;;28.41;33.55
74336;BME280;62755;-33.398;-70.572;2023-02-11T01:15:10;92731.28;;;28.06;33.73
74336;BME280;62755;-33.398;-70.572;2023-02-11T01:18:00;92743.16;;;28.14;34.07
74336;BME280;62755;-33.398;-70.572;2023-02-11T01:20:51;92740.56;;;28.29;33.68
74336;BME280;62755;-33.398;-70.572;2023-02-11T01:23:40;92740.88;;;28.38;34.00
74336;BME280;62755;-33.398;-70.572;2023-02-11T01:26:30;92742.97;;;27.99;34.22
74336;BME280;62755;-33.398;-70.572;2023-02-11T01:29:21;92724.91;;;27.98;34.51
74336;BME280;62755;-33.398;-70.572;2023-02-11T01:32:10;92750.88;;;28.15;34.13
74336;BME280;62755;-33.398;-70.572;2023-02-11T01:35:00;92749.78;;;28.44;34.18
74336;BME280;62755;-33.398;-70.572;2023-02-11T01:37:49;92753.06;;;28.56;33.70
74336;BME280;62755;-33.398;-70.572;2023-02-11T01:40:38;92739.69;;;28.60;33.80
74336;BME280;62755;-33.398;-70.572;2023-02-11T01:43:31;92752.22;;;28.61;33.91
74336;BME280;62755;-33.398;-70.572;2023-02-11T01:46:29;92749.25;;;28.46;33.71
74336;BME280;62755;-33.398;-70.572;2023-02-11T01:49:21;92753.75;;;28.10;34.32
74336;BME280;62755;-33.398;-70.572;2023-02-11T01:52:15;92754.84;;;28.07;34.58
74336;BME280;62755;-33.398;-70.572;2023-02-11T01:55:10;92758.72;;;28.11;34.82
74336;BME280;62755;-33.398;-70.572;2023-02-11T01:58:29;92755.31;;;27.92;35.43
74336;BME280;62755;-33.398;-70.572;2023-02-11T02:01:26;92750.78;;;28.34;34.02
74336;BME280;62755;-33.398;-70.572;2023-02-11T02:04:18;92755.31;;;28.31;34.69
74336;BME280;62755;-33.398;-70.572;2023-02-11T02:07:11;92748.34;;;28.30;34.69
74336;BME280;62755;-33.398;-70.572;2023-02-11T02:10:07;92755.44;;;28.26;34.79
74336;BME280;62755;-33.398;-70.572;2023-02-11T02:12:57;92748.91;;;28.03;35.29
74336;BME280;62755;-33.398;-70.572;2023-02-11T02:15:49;92742.97;;;27.99;34.99
74336;BME280;62755;-33.398;-70.572;2023-02-11T02:18:47;92719.69;;;27.68;35.54
74336;BME280;62755;-33.398;-70.572;2023-02-11T02:22:08;92734.69;;;27.99;35.46
74336;BME280;62755;-33.398;-70.572;2023-02-11T02:25:13;92723.94;;;27.82;35.77
74336;BME280;62755;-33.398;-70.572;2023-02-11T02:28:19;92714.50;;;27.64;36.28
74336;BME280;62755;-33.398;-70.572;2023-02-11T02:31:24;92732.97;;;27.96;35.75
74336;BME280;62755;-33.398;-70.572;2023-02-11T02:34:28;92740.81;;;27.78;35.91
74336;BME280;62755;-33.398;-70.572;2023-02-11T02:37:23;92733.78;;;27.51;36.58
74336;BME280;62755;-33.398;-70.572;2023-02-11T02:40:17;92724.28;;;27.78;36.33
74336;BME280;62755;-33.398;-70.572;2023-02-11T02:43:09;92732.41;;;27.58;36.75
74336;BME280;62755;-33.398;-70.572;2023-02-11T02:46:11;92718.63;;;27.45;36.72
74336;BME280;62755;-33.398;-70.572;2023-02-11T02:49:01;92734.19;;;27.42;36.67
74336;BME280;62755;-33.398;-70.572;2023-02-11T02:52:18;92725.75;;;27.53;36.68
74336;BME280;62755;-33.398;-70.572;2023-02-11T02:55:24;92728.41;;;27.14;36.99
74336;BME280;62755;-33.398;-70.572;2023-02-11T02:58:50;92718.63;;;27.00;37.28
74336;BME280;62755;-33.398;-70.572;2023-02-11T03:01:48;92714.91;;;26.98;38.11
74336;BME280;62755;-33.398;-70.572;2023-02-11T03:04:44;92715.56;;;27.04;37.94
74336;BME280;62755;-33.398;-70.572;2023-02-11T03:07:42;92725.53;;;27.51;37.03
74336;BME280;62755;-33.398;-70.572;2023-02-11T03:10:34;92710.91;;;27.69;36.07
74336;BME280;62755;-33.398;-70.572;2023-02-11T03:13:27;92718.09;;;27.46;37.12
74336;BME280;62755;-33.398;-70.572;2023-02-11T03:16:20;92715.28;;;27.20;37.76
74336;BME280;62755;-33.398;-70.572;2023-02-11T03:19:12;92712.06;;;27.03;38.25
74336;BME280;62755;-33.398;-70.572;2023-02-11T03:22:06;92716.75;;;27.21;37.77
74336;BME280;62755;-33.398;-70.572;2023-02-11T03:24:58;92705.09;;;27.15;37.40
74336;BME280;62755;-33.398;-70.572;2023-02-11T03:27:53;92705.06;;;27.02;36.73
74336;BME280;62755;-33.398;-70.572;2023-02-11T03:30:50;92695.75;;;27.05;36.84
74336;BME280;62755;-33.398;-70.572;2023-02-11T03:33:46;92692.31;;;26.86;36.99
74336;BME280;62755;-33.398;-70.572;2023-02-11T03:36:42;92698.38;;;26.98;37.81
74336;BME280;62755;-33.398;-70.572;2023-02-11T03:39:38;92677.72;;;26.59;37.74
74336;BME280;62755;-33.398;-70.572;2023-02-11T03:42:34;92698.56;;;26.86;37.83
74336;BME280;62755;-33.398;-70.572;2023-02-11T03:45:27;92693.16;;;26.81;38.14
74336;BME280;62755;-33.398;-70.572;2023-02-11T03:48:21;92691.75;;;27.19;36.72
74336;BME280;62755;-33.398;-70.572;2023-02-11T03:51:12;92694.81;;;27.03;37.21
74336;BME280;62755;-33.398;-70.572;2023-02-11T03:54:06;92689.84;;;27.14;36.91
74336;BME280;62755;-33.398;-70.572;2023-02-11T03:56:59;92686.69;;;27.10;37.08
74336;BME280;62755;-33.398;-70.572;2023-02-11T03:59:57;92686.47;;;27.08;37.02
74336;BME280;62755;-33.398;-70.572;2023-02-11T04:02:47;92694.19;;;27.10;37.23
74336;BME280;62755;-33.398;-70.572;2023-02-11T04:05:37;92683.69;;;27.08;37.05
74336;BME280;62755;-33.398;-70.572;2023-02-11T04:08:26;92684.34;;;27.14;36.98
74336;BME280;62755;-33.398;-70.572;2023-02-11T04:11:15;92674.16;;;26.96;36.87
74336;BME280;62755;-33.398;-70.572;2023-02-11T04:14:05;92684.72;;;26.92;36.84
74336;BME280;62755;-33.398;-70.572;2023-02-11T04:16:56;92680.25;;;26.89;37.05
74336;BME280;62755;-33.398;-70.572;2023-02-11T04:19:45;92686.06;;;26.85;37.26
74336;BME280;62755;-33.398;-70.572;2023-02-11T04:22:34;92667.22;;;26.76;37.59
74336;BME280;62755;-33.398;-70.572;2023-02-11T04:25:24;92677.72;;;26.91;36.70
74336;BME280;62755;-33.398;-70.572;2023-02-11T04:28:13;92651.88;;;26.81;36.82
74336;BME280;62755;-33.398;-70.572;2023-02-11T04:31:02;92661.78;;;27.03;36.55
74336;BME280;62755;-33.398;-70.572;2023-02-11T04:33:55;92664.19;;;26.93;36.42
74336;BME280;62755;-33.398;-70.572;2023-02-11T04:36:44;92638.50;;;26.72;36.87
74336;BME280;62755;-33.398;-70.572;2023-02-11T04:39:34;92660.44;;;26.77;37.46
74336;BME280;62755;-33.398;-70.572;2023-02-11T04:42:23;92656.22;;;26.76;37.46
74336;BME280;62755;-33.398;-70.572;2023-02-11T04:45:12;92667.34;;;26.84;37.04
74336;BME280;62755;-33.398;-70.572;2023-02-11T04:48:02;92660.66;;;26.79;37.42
74336;BME280;62755;-33.398;-70.572;2023-02-11T04:50:53;92657.38;;;26.81;36.83
74336;BME280;62755;-33.398;-70.572;2023-02-11T04:53:42;92642.66;;;26.78;36.61
74336;BME280;62755;-33.398;-70.572;2023-02-11T04:56:32;92654.22;;;26.77;37.16
74336;BME280;62755;-33.398;-70.572;2023-02-11T04:59:21;92644.19;;;26.61;37.72
74336;BME280;62755;-33.398;-70.572;2023-02-11T05:02:11;92642.16;;;26.61;37.56
74336;BME280;62755;-33.398;-70.572;2023-02-11T05:05:00;92639.72;;;26.58;37.06
74336;BME280;62755;-33.398;-70.572;2023-02-11T05:07:51;92642.69;;;26.60;37.33
74336;BME280;62755;-33.398;-70.572;2023-02-11T05:10:45;92621.94;;;26.59;37.13
74336;BME280;62755;-33.398;-70.572;2023-02-11T05:13:35;92634.31;;;26.84;37.02
74336;BME280;62755;-33.398;-70.572;2023-02-11T05:16:24;92619.47;;;26.74;37.08
74336;BME280;62755;-33.398;-70.572;2023-02-11T05:19:13;92634.88;;;26.64;36.79
74336;BME280;62755;-33.398;-70.572;2023-02-11T05:22:03;92620.28;;;26.69;37.00
74336;BME280;62755;-33.398;-70.572;2023-02-11T05:24:54;92625.97;;;26.58;37.17
74336;BME280;62755;-33.398;-70.572;2023-02-11T05:27:43;92629.16;;;26.62;36.75
74336;BME280;62755;-33.398;-70.572;2023-02-11T05:30:32;92628.94;;;26.60;37.35
74336;BME280;62755;-33.398;-70.572;2023-02-11T05:33:22;92630.47;;;26.74;36.62
74336;BME280;62755;-33.398;-70.572;2023-02-11T05:36:12;92615.28;;;26.86;36.49
74336;BME280;62755;-33.398;-70.572;2023-02-11T05:39:02;92607.56;;;26.66;36.72
74336;BME280;62755;-33.398;-70.572;2023-02-11T05:41:53;92611.16;;;26.61;36.34
74336;BME280;62755;-33.398;-70.572;2023-02-11T05:44:43;92599.81;;;26.20;37.69
74336;BME280;62755;-33.398;-70.572;2023-02-11T05:47:32;92606.56;;;25.81;39.47
74336;BME280;62755;-33.398;-70.572;2023-02-11T05:50:21;92600.41;;;25.75;39.59
74336;BME280;62755;-33.398;-70.572;2023-02-11T05:53:11;92602.19;;;25.91;39.59
74336;BME280;62755;-33.398;-70.572;2023-02-11T05:56:00;92586.75;;;25.88;38.92
74336;BME280;62755;-33.398;-70.572;2023-02-11T05:58:51;92601.00;;;26.05;38.70
74336;BME280;62755;-33.398;-70.572;2023-02-11T06:01:41;92597.56;;;25.99;39.04
74336;BME280;62755;-33.398;-70.572;2023-02-11T06:04:30;92596.75;;;26.04;38.88
74336;BME280;62755;-33.398;-70.572;2023-02-11T06:07:21;92600.28;;;25.86;39.54
74336;BME280;62755;-33.398;-70.572;2023-02-11T06:10:10;92596.91;;;25.93;39.47
74336;BME280;62755;-33.398;-70.572;2023-02-11T06:13:00;92590.75;;;25.87;39.67
74336;BME280;62755;-33.398;-70.572;2023-02-11T06:15:58;92599.22;;;25.89;39.64
74336;BME280;62755;-33.398;-70.572;2023-02-11T06:18:47;92590.00;;;26.05;39.53
74336;BME280;62755;-33.398;-70.572;2023-02-11T06:21:36;92594.25;;;26.06;39.53
74336;BME280;62755;-33.398;-70.572;2023-02-11T06:24:26;92592.97;;;25.89;39.46
74336;BME280;62755;-33.398;-70.572;2023-02-11T06:27:15;92590.88;;;25.95;39.27
74336;BME280;62755;-33.398;-70.572;2023-02-11T06:30:05;92594.19;;;25.75;39.77
74336;BME280;62755;-33.398;-70.572;2023-02-11T06:32:57;92600.09;;;25.60;40.42
74336;BME280;62755;-33.398;-70.572;2023-02-11T06:35:46;92590.31;;;25.65;40.20
74336;BME280;62755;-33.398;-70.572;2023-02-11T06:38:35;92587.34;;;25.63;40.21
74336;BME280;62755;-33.398;-70.572;2023-02-11T06:41:25;92588.50;;;25.67;39.93
74336;BME280;62755;-33.398;-70.572;2023-02-11T06:44:14;92582.13;;;25.59;40.39
74336;BME280;62755;-33.398;-70.572;2023-02-11T06:47:03;92569.66;;;25.58;40.08
74336;BME280;62755;-33.398;-70.572;2023-02-11T06:49:55;92585.09;;;25.61;40.00
74336;BME280;62755;-33.398;-70.572;2023-02-11T06:52:45;92588.50;;;25.67;40.20
74336;BME280;62755;-33.398;-70.572;2023-02-11T06:55:35;92583.91;;;25.75;40.13
74336;BME280;62755;-33.398;-70.572;2023-02-11T06:58:24;92582.44;;;25.74;40.14
74336;BME280;62755;-33.398;-70.572;2023-02-11T07:01:15;92575.81;;;25.83;39.39
74336;BME280;62755;-33.398;-70.572;2023-02-11T07:04:04;92582.44;;;25.74;40.01
74336;BME280;62755;-33.398;-70.572;2023-02-11T07:06:57;92558.09;;;25.65;39.37
74336;BME280;62755;-33.398;-70.572;2023-02-11T07:09:46;92574.03;;;25.48;40.21
74336;BME280;62755;-33.398;-70.572;2023-02-11T07:12:35;92572.41;;;25.58;39.83
74336;BME280;62755;-33.398;-70.572;2023-02-11T07:15:25;92579.03;;;25.68;39.96
74336;BME280;62755;-33.398;-70.572;2023-02-11T07:18:14;92583.63;;;25.60;40.46
74336;BME280;62755;-33.398;-70.572;2023-02-11T07:21:04;92577.41;;;25.78;39.80
74336;BME280;62755;-33.398;-70.572;2023-02-11T07:23:56;92574.56;;;25.65;40.04
74336;BME280;62755;-33.398;-70.572;2023-02-11T07:26:45;92577.19;;;25.76;40.25
74336;BME280;62755;-33.398;-70.572;2023-02-11T07:29:34;92568.94;;;25.76;39.69
74336;BME280;62755;-33.398;-70.572;2023-02-11T07:32:24;92569.97;;;25.73;39.92
74336;BME280;62755;-33.398;-70.572;2023-02-11T07:35:13;92574.13;;;25.61;40.38
74336;BME280;62755;-33.398;-70.572;2023-02-11T07:38:02;92567.66;;;25.77;40.33
74336;BME280;62755;-33.398;-70.572;2023-02-11T07:40:53;92568.41;;;25.59;40.54
74336;BME280;62755;-33.398;-70.572;2023-02-11T07:43:43;92564.63;;;25.62;40.35
74336;BME280;62755;-33.398;-70.572;2023-02-11T07:46:33;92575.38;;;25.79;40.01
74336;BME280;62755;-33.398;-70.572;2023-02-11T07:49:22;92560.31;;;25.48;39.04
74336;BME280;62755;-33.398;-70.572;2023-02-11T07:52:12;92575.94;;;25.35;39.27
74336;BME280;62755;-33.398;-70.572;2023-02-11T07:55:01;92573.06;;;25.46;38.59
74336;BME280;62755;-33.398;-70.572;2023-02-11T07:57:52;92569.66;;;25.58;37.64
74336;BME280;62755;-33.398;-70.572;2023-02-11T08:00:41;92564.34;;;25.47;38.21
74336;BME280;62755;-33.398;-70.572;2023-02-11T08:03:31;92570.06;;;25.49;38.50
74336;BME280;62755;-33.398;-70.572;2023-02-11T08:06:23;92566.72;;;25.56;38.39
74336;BME280;62755;-33.398;-70.572;2023-02-11T08:09:14;92564.72;;;25.33;38.62
74336;BME280;62755;-33.398;-70.572;2023-02-11T08:12:04;92568.22;;;25.33;38.25
74336;BME280;62755;-33.398;-70.572;2023-02-11T08:14:56;92570.75;;;25.31;38.56
74336;BME280;62755;-33.398;-70.572;2023-02-11T08:17:45;92566.41;;;25.41;38.29
74336;BME280;62755;-33.398;-70.572;2023-02-11T08:20:34;92567.88;;;25.42;37.66
74336;BME280;62755;-33.398;-70.572;2023-02-11T08:23:24;92566.19;;;25.34;37.79
74336;BME280;62755;-33.398;-70.572;2023-02-11T08:26:15;92559.38;;;25.21;37.77
74336;BME280;62755;-33.398;-70.572;2023-02-11T08:29:08;92574.50;;;25.09;37.38
74336;BME280;62755;-33.398;-70.572;2023-02-11T08:32:01;92546.28;;;25.09;37.62
74336;BME280;62755;-33.398;-70.572;2023-02-11T08:34:51;92579.13;;;25.39;37.60
74336;BME280;62755;-33.398;-70.572;2023-02-11T08:37:40;92581.94;;;25.33;38.03
74336;BME280;62755;-33.398;-70.572;2023-02-11T08:40:29;92572.81;;;25.25;37.93
74336;BME280;62755;-33.398;-70.572;2023-02-11T08:43:19;92571.66;;;25.15;38.08
74336;BME280;62755;-33.398;-70.572;2023-02-11T08:46:12;92562.75;;;25.09;37.93
74336;BME280;62755;-33.398;-70.572;2023-02-11T08:49:03;92570.50;;;25.29;38.00
74336;BME280;62755;-33.398;-70.572;2023-02-11T08:51:53;92578.03;;;25.04;37.59
74336;BME280;62755;-33.398;-70.572;2023-02-11T08:54:45;92566.09;;;24.78;37.58
74336;BME280;62755;-33.398;-70.572;2023-02-11T08:57:34;92580.06;;;24.98;37.51
74336;BME280;62755;-33.398;-70.572;2023-02-11T09:00:24;92574.09;;;25.00;37.84
74336;BME280;62755;-33.398;-70.572;2023-02-11T09:03:14;92593.50;;;24.78;37.87
74336;BME280;62755;-33.398;-70.572;2023-02-11T09:06:07;92589.03;;;24.75;37.85
74336;BME280;62755;-33.398;-70.572;2023-02-11T09:08:57;92580.91;;;24.64;37.33
74336;BME280;62755;-33.398;-70.572;2023-02-11T09:11:46;92580.66;;;24.62;37.67
74336;BME280;62755;-33.398;-70.572;2023-02-11T09:14:36;92592.84;;;24.36;38.02
74336;BME280;62755;-33.398;-70.572;2023-02-11T09:17:25;92583.00;;;24.52;37.56
74336;BME280;62755;-33.398;-70.572;2023-02-11T09:20:14;92587.66;;;24.63;37.25
74336;BME280;62755;-33.398;-70.572;2023-02-11T09:23:06;92591.78;;;24.75;37.02
74336;BME280;62755;-33.398;-70.572;2023-02-11T09:25:55;92592.53;;;24.46;37.85
74336;BME280;62755;-33.398;-70.572;2023-02-11T09:28:44;92590.72;;;24.54;37.30
74336;BME280;62755;-33.398;-70.572;2023-02-11T09:31:34;92595.59;;;24.36;38.64
74336;BME280;62755;-33.398;-70.572;2023-02-11T09:34:24;92594.53;;;24.45;38.42
74336;BME280;62755;-33.398;-70.572;2023-02-11T09:37:13;92598.88;;;24.59;38.42
74336;BME280;62755;-33.398;-70.572;2023-02-11T09:40:05;92598.38;;;24.61;38.45
74336;BME280;62755;-33.398;-70.572;2023-02-11T09:43:00;92599.63;;;24.60;38.21
74336;BME280;62755;-33.398;-70.572;2023-02-11T09:45:52;92600.47;;;24.79;38.26
74336;BME280;62755;-33.398;-70.572;2023-02-11T09:48:44;92607.00;;;24.76;38.22
74336;BME280;62755;-33.398;-70.572;2023-02-11T09:51:37;92616.47;;;24.75;38.07
74336;BME280;62755;-33.398;-70.572;2023-02-11T09:54:33;92593.69;;;24.56;38.40
74336;BME280;62755;-33.398;-70.572;2023-02-11T09:57:29;92627.22;;;24.67;38.41
74336;BME280;62755;-33.398;-70.572;2023-02-11T10:00:21;92627.97;;;24.68;38.03
74336;BME280;62755;-33.398;-70.572;2023-02-11T10:03:24;92627.44;;;24.75;38.17
74336;BME280;62755;-33.398;-70.572;2023-02-11T10:09:46;92634.66;;;24.42;38.63
74336;BME280;62755;-33.398;-70.572;2023-02-11T10:12:55;92639.69;;;24.38;38.73
74336;BME280;62755;-33.398;-70.572;2023-02-11T10:15:53;92636.34;;;24.51;38.63
74336;BME280;62755;-33.398;-70.572;2023-02-11T10:18:59;92641.53;;;24.25;38.72
74336;BME280;62755;-33.398;-70.572;2023-02-11T10:21:57;92649.63;;;24.41;38.53
74336;BME280;62755;-33.398;-70.572;2023-02-11T10:24:51;92650.66;;;24.38;38.12
74336;BME280;62755;-33.398;-70.572;2023-02-11T10:27:45;92654.25;;;24.22;38.18
74336;BME280;62755;-33.398;-70.572;2023-02-11T10:30:37;92652.28;;;24.17;38.17
74336;BME280;62755;-33.398;-70.572;2023-02-11T10:33:31;92663.25;;;24.17;38.00
74336;BME280;62755;-33.398;-70.572;2023-02-11T10:36:25;92655.75;;;24.23;37.97
74336;BME280;62755;-33.398;-70.572;2023-02-11T10:39:17;92659.16;;;24.35;37.85
74336;BME280;62755;-33.398;-70.572;2023-02-11T10:42:09;92650.88;;;24.05;38.18
74336;BME280;62755;-33.398;-70.572;2023-02-11T10:45:03;92668.31;;;24.02;38.20
74336;BME280;62755;-33.398;-70.572;2023-02-11T10:47:53;92668.84;;;23.95;38.68
74336;BME280;62755;-33.398;-70.572;2023-02-11T10:50:42;92672.81;;;23.94;38.61
74336;BME280;62755;-33.398;-70.572;2023-02-11T10:53:32;92670.91;;;23.78;38.41
74336;BME280;62755;-33.398;-70.572;2023-02-11T10:56:24;92681.72;;;24.11;38.12
74336;BME280;62755;-33.398;-70.572;2023-02-11T10:59:19;92682.44;;;24.17;37.99
74336;BME280;62755;-33.398;-70.572;2023-02-11T11:02:21;92679.28;;;24.37;37.70
74336;BME280;62755;-33.398;-70.572;2023-02-11T11:05:16;92676.63;;;24.26;37.58
74336;BME280;62755;-33.398;-70.572;2023-02-11T11:08:08;92668.19;;;24.24;37.53
74336;BME280;62755;-33.398;-70.572;2023-02-11T11:11:02;92679.84;;;24.30;36.82
74336;BME280;62755;-33.398;-70.572;2023-02-11T11:13:57;92678.44;;;24.54;36.46
74336;BME280;62755;-33.398;-70.572;2023-02-11T11:16:52;92678.53;;;24.42;36.86
74336;BME280;62755;-33.398;-70.572;2023-02-11T11:19:43;92679.94;;;24.55;36.30
74336;BME280;62755;-33.398;-70.572;2023-02-11T11:22:32;92688.72;;;24.83;36.19
74336;BME280;62755;-33.398;-70.572;2023-02-11T11:25:25;92675.63;;;24.65;36.39
74336;BME280;62755;-33.398;-70.572;2023-02-11T11:28:21;92691.44;;;24.48;36.77
74336;BME280;62755;-33.398;-70.572;2023-02-11T11:31:13;92696.53;;;24.68;36.28
74336;BME280;62755;-33.398;-70.572;2023-02-11T11:34:20;92688.16;;;24.55;36.39
74336;BME280;62755;-33.398;-70.572;2023-02-11T11:37:16;92697.16;;;24.85;35.83
74336;BME280;62755;-33.398;-70.572;2023-02-11T11:40:16;92699.13;;;24.90;35.76
74336;BME280;62755;-33.398;-70.572;2023-02-11T11:43:19;92698.38;;;24.89;36.07
74336;BME280;62755;-33.398;-70.572;2023-02-11T11:46:09;92699.97;;;25.09;36.23
74336;BME280;62755;-33.398;-70.572;2023-02-11T11:49:06;92712.44;;;25.10;36.35
74336;BME280;62755;-33.398;-70.572;2023-02-11T11:52:05;92712.28;;;24.97;36.48
74336;BME280;62755;-33.398;-70.572;2023-02-11T11:55:04;92714.91;;;25.13;37.29
74336;BME280;62755;-33.398;-70.572;2023-02-11T11:57:58;92716.22;;;25.31;36.66
74336;BME280;62755;-33.398;-70.572;2023-02-11T12:00:53;92716.22;;;25.31;36.38
74336;BME280;62755;-33.398;-70.572;2023-02-11T12:07:27;92721.34;;;25.16;37.06
74336;BME280;62755;-33.398;-70.572;2023-02-11T12:13:55;92721.31;;;25.51;36.58
74336;BME280;62755;-33.398;-70.572;2023-02-11T12:16:56;92728.09;;;25.45;36.74
74336;BME280;62755;-33.398;-70.572;2023-02-11T12:20:18;92726.38;;;25.42;37.03
74336;BME280;62755;-33.398;-70.572;2023-02-11T12:23:27;92723.97;;;25.57;37.25
74336;BME280;62755;-33.398;-70.572;2023-02-11T12:26:22;92715.84;;;25.46;37.79
74336;BME280;62755;-33.398;-70.572;2023-02-11T12:29:22;92736.50;;;25.52;37.81
74336;BME280;62755;-33.398;-70.572;2023-02-11T12:32:23;92740.03;;;25.71;37.53
74336;BME280;62755;-33.398;-70.572;2023-02-11T12:35:25;92738.34;;;25.68;37.11
74336;BME280;62755;-33.398;-70.572;2023-02-11T12:38:38;92740.09;;;25.66;37.55
74336;BME280;62755;-33.398;-70.572;2023-02-11T12:41:44;92733.16;;;25.83;36.96
74336;BME280;62755;-33.398;-70.572;2023-02-11T12:45:08;92741.31;;;25.70;37.48
74336;BME280;62755;-33.398;-70.572;2023-02-11T12:48:11;92733.63;;;25.63;37.52
74336;BME280;62755;-33.398;-70.572;2023-02-11T12:51:15;92729.88;;;25.66;37.27
74336;BME280;62755;-33.398;-70.572;2023-02-11T12:54:19;92731.34;;;25.67;37.25
74336;BME280;62755;-33.398;-70.572;2023-02-11T12:57:16;92734.78;;;25.73;37.37
74336;BME280;62755;-33.398;-70.572;2023-02-11T13:03:05;92742.38;;;25.62;37.65
74336;BME280;62755;-33.398;-70.572;2023-02-11T13:06:02;92740.53;;;25.51;38.01
74336;BME280;62755;-33.398;-70.572;2023-02-11T13:08:54;92748.56;;;25.68;37.67
74336;BME280;62755;-33.398;-70.572;2023-02-11T13:11:49;92734.94;;;25.81;37.55
74336;BME280;62755;-33.398;-70.572;2023-02-11T13:14:42;92745.75;;;25.97;37.49
74336;BME280;62755;-33.398;-70.572;2023-02-11T13:17:36;92740.50;;;26.18;36.99
74336;BME280;62755;-33.398;-70.572;2023-02-11T13:20:37;92744.09;;;26.13;37.21
74336;BME280;62755;-33.398;-70.572;2023-02-11T13:23:36;92744.97;;;26.21;37.02
74336;BME280;62755;-33.398;-70.572;2023-02-11T13:26:30;92741.34;;;26.32;37.36
74336;BME280;62755;-33.398;-70.572;2023-02-11T13:29:30;92742.91;;;26.46;36.42
74336;BME280;62755;-33.398;-70.572;2023-02-11T13:32:22;92740.66;;;26.63;36.11
74336;BME280;62755;-33.398;-70.572;2023-02-11T13:35:27;92736.09;;;26.34;36.29
74336;BME280;62755;-33.398;-70.572;2023-02-11T13:38:18;92731.53;;;26.55;36.01
74336;BME280;62755;-33.398;-70.572;2023-02-11T13:41:17;92746.19;;;26.63;35.89
74336;BME280;62755;-33.398;-70.572;2023-02-11T13:44:24;92742.47;;;26.79;35.88
74336;BME280;62755;-33.398;-70.572;2023-02-11T13:47:27;92739.94;;;26.81;36.27
74336;BME280;62755;-33.398;-70.572;2023-02-11T13:50:21;92738.44;;;26.80;35.51
74336;BME280;62755;-33.398;-70.572;2023-02-11T13:53:12;92738.00;;;26.76;35.40
74336;BME280;62755;-33.398;-70.572;2023-02-11T13:56:07;92736.81;;;26.71;35.61
74336;BME280;62755;-33.398;-70.572;2023-02-11T13:58:58;92723.72;;;26.59;35.87
74336;BME280;62755;-33.398;-70.572;2023-02-11T14:02:08;92738.00;;;26.76;36.14
74336;BME280;62755;-33.398;-70.572;2023-02-11T14:05:32;92732.50;;;27.08;36.40
74336;BME280;62755;-33.398;-70.572;2023-02-11T14:08:59;92741.59;;;27.34;36.30
74336;BME280;62755;-33.398;-70.572;2023-02-11T14:11:50;92734.16;;;27.29;35.21
74336;BME280;62755;-33.398;-70.572;2023-02-11T14:18:02;92735.63;;;27.30;35.58
74336;BME280;62755;-33.398;-70.572;2023-02-11T14:21:16;92739.53;;;27.53;35.78
74336;BME280;62755;-33.398;-70.572;2023-02-11T14:27:31;92740.16;;;27.59;34.95
74336;BME280;62755;-33.398;-70.572;2023-02-11T14:30:32;92744.59;;;27.62;35.57
74336;BME280;62755;-33.398;-70.572;2023-02-11T14:33:46;92739.09;;;27.62;35.26
74336;BME280;62755;-33.398;-70.572;2023-02-11T14:37:00;92737.84;;;27.76;35.56
74336;BME280;62755;-33.398;-70.572;2023-02-11T14:39:57;92747.38;;;27.89;35.69
74336;BME280;62755;-33.398;-70.572;2023-02-11T14:42:51;92738.38;;;27.88;34.10
74336;BME280;62755;-33.398;-70.572;2023-02-11T14:45:47;92734.88;;;27.74;34.42
74336;BME280;62755;-33.398;-70.572;2023-02-11T14:48:39;92746.53;;;27.67;34.72
74336;BME280;62755;-33.398;-70.572;2023-02-11T14:51:32;92735.91;;;27.45;34.34
74336;BME280;62755;-33.398;-70.572;2023-02-11T14:54:26;92742.28;;;27.66;33.97
74336;BME280;62755;-33.398;-70.572;2023-02-11T14:57:18;92744.75;;;27.96;34.16
74336;BME280;62755;-33.398;-70.572;2023-02-11T15:00:16;92731.06;;;27.91;32.89
74336;BME280;62755;-33.398;-70.572;2023-02-11T15:03:22;92729.97;;;27.94;33.92
74336;BME280;62755;-33.398;-70.572;2023-02-11T15:06:16;92737.88;;;28.03;33.14